sensor_id;sensor_type;location;lat;lon;timestamp;pressure;altitude;pressure_sealevel;temperature;humidity
35758;BME280;21879;50.110;18.900;2024-01-07T00:06:19;97972.67;;;22.52;50.51
35758;BME280;21879;50.110;18.900;2024-01-07T00:16:47;97978.17;;;22.52;50.45
35758;BME280;21879;50.110;18.900;2024-01-07T00:27:15;97979.67;;;22.50;50.32
35758;BME280;21879;50.110;18.900;2024-01-07T00:37:42;97982.95;;;22.49;50.27
35758;BME280;21879;50.110;18.900;2024-01-07T00:48:10;97994.19;;;22.48;50.25
35758;BME280;21879;50.110;18.900;2024-01-07T00:58:38;98007.55;;;22.47;50.03
35758;BME280;21879;50.110;18.900;2024-01-07T01:09:06;98008.11;;;22.47;50.20
35758;BME280;21879;50.110;18.900;2024-01-07T01:19:33;98020.92;;;22.46;49.98
35758;BME280;21879;50.110;18.900;2024-01-07T01:30:01;98021.33;;;22.45;49.98
35758;BME280;21879;50.110;18.900;2024-01-07T01:40:28;98027.34;;;22.45;49.84
35758;BME280;21879;50.110;18.900;2024-01-07T01:50:57;98029.66;;;22.45;49.67
35758;BME280;21879;50.110;18.900;2024-01-07T02:01:25;98035.34;;;22.45;49.50
35758;BME280;21879;50.110;18.900;2024-01-07T02:12:06;98038.77;;;22.44;49.36
35758;BME280;21879;50.110;18.900;2024-01-07T02:22:38;98039.01;;;22.43;49.33
35758;BME280;21879;50.110;18.900;2024-01-07T02:33:06;98039.27;;;22.42;49.28
35758;BME280;21879;50.110;18.900;2024-01-07T02:43:34;98048.42;;;22.35;49.21
35758;BME280;21879;50.110;18.900;2024-01-07T02:54:02;98045.79;;;22.29;49.24
35758;BME280;21879;50.110;18.900;2024-01-07T03:04:29;98049.92;;;22.23;49.39
35758;BME280;21879;50.110;18.900;2024-01-07T03:14:57;98054.80;;;22.19;49.32
35758;BME280;21879;50.110;18.900;2024-01-07T03:25:25;98059.96;;;22.16;49.27
35758;BME280;21879;50.110;18.900;2024-01-07T03:35:53;98062.40;;;22.13;49.31
35758;BME280;21879;50.110;18.900;2024-01-07T03:46:21;98060.99;;;22.11;49.23
35758;BME280;21879;50.110;18.900;2024-01-07T03:56:49;98070.30;;;22.09;49.16
35758;BME280;21879;50.110;18.900;2024-01-07T04:07:16;98072.09;;;22.09;49.18
35758;BME280;21879;50.110;18.900;2024-01-07T04:17:44;98083.52;;;22.11;49.21
35758;BME280;21879;50.110;18.900;2024-01-07T04:28:12;98084.02;;;22.11;49.17
35758;BME280;21879;50.110;18.900;2024-01-07T04:38:40;98090.64;;;22.10;49.00
35758;BME280;21879;50.110;18.900;2024-01-07T04:49:08;98106.77;;;22.09;49.00
35758;BME280;21879;50.110;18.900;2024-01-07T04:59:36;98114.96;;;22.09;48.97
35758;BME280;21879;50.110;18.900;2024-01-07T05:10:05;98119.23;;;22.08;48.95
35758;BME280;21879;50.110;18.900;2024-01-07T05:20:33;98123.84;;;22.08;48.92
35758;BME280;21879;50.110;18.900;2024-01-07T05:31:01;98141.73;;;22.08;48.75
35758;BME280;21879;50.110;18.900;2024-01-07T05:41:29;98148.27;;;22.08;48.74
35758;BME280;21879;50.110;18.900;2024-01-07T05:51:56;98154.56;;;22.07;48.69
35758;BME280;21879;50.110;18.900;2024-01-07T06:02:24;98159.63;;;22.05;48.56
35758;BME280;21879;50.110;18.900;2024-01-07T06:12:52;98172.67;;;22.03;48.57
35758;BME280;21879;50.110;18.900;2024-01-07T06:23:20;98177.16;;;22.02;48.47
35758;BME280;21879;50.110;18.900;2024-01-07T06:33:48;98193.66;;;22.01;48.28
35758;BME280;21879;50.110;18.900;2024-01-07T06:44:16;98205.03;;;22.01;48.21
35758;BME280;21879;50.110;18.900;2024-01-07T06:54:44;98215.33;;;22.00;48.08
35758;BME280;21879;50.110;18.900;2024-01-07T07:05:12;98215.92;;;21.99;48.07
35758;BME280;21879;50.110;18.900;2024-01-07T07:15:40;98227.85;;;21.98;47.94
35758;BME280;21879;50.110;18.900;2024-01-07T07:26:08;98243.50;;;21.97;47.87
35758;BME280;21879;50.110;18.900;2024-01-07T07:36:36;98250.08;;;21.97;47.76
35758;BME280;21879;50.110;18.900;2024-01-07T07:47:04;98255.60;;;21.96;47.65
35758;BME280;21879;50.110;18.900;2024-01-07T07:57:32;98262.91;;;21.95;47.62
35758;BME280;21879;50.110;18.900;2024-01-07T08:08:00;98270.00;;;21.95;47.54
35758;BME280;21879;50.110;18.900;2024-01-07T08:18:27;98279.23;;;21.95;47.30
35758;BME280;21879;50.110;18.900;2024-01-07T08:28:55;98285.25;;;21.95;47.28
35758;BME280;21879;50.110;18.900;2024-01-07T08:39:23;98288.85;;;21.94;47.34
35758;BME280;21879;50.110;18.900;2024-01-07T08:49:52;98299.98;;;21.94;47.53
35758;BME280;21879;50.110;18.900;2024-01-07T09:00:21;98309.66;;;21.95;47.83
35758;BME280;21879;50.110;18.900;2024-01-07T09:10:52;98319.25;;;21.98;48.04
35758;BME280;21879;50.110;18.900;2024-01-07T09:21:20;98323.95;;;21.99;48.12
35758;BME280;21879;50.110;18.900;2024-01-07T09:31:49;98326.69;;;22.00;48.34
35758;BME280;21879;50.110;18.900;2024-01-07T09:42:18;98325.91;;;22.04;48.48
35758;BME280;21879;50.110;18.900;2024-01-07T09:52:47;98324.36;;;22.06;48.38
35758;BME280;21879;50.110;18.900;2024-01-07T10:03:16;98318.83;;;22.07;48.19
35758;BME280;21879;50.110;18.900;2024-01-07T10:13:46;98321.69;;;22.07;48.00
35758;BME280;21879;50.110;18.900;2024-01-07T10:24:15;98318.39;;;22.05;47.61
35758;BME280;21879;50.110;18.900;2024-01-07T10:34:45;98315.02;;;22.06;47.43
35758;BME280;21879;50.110;18.900;2024-01-07T10:45:15;98314.34;;;22.05;47.22
35758;BME280;21879;50.110;18.900;2024-01-07T10:55:47;98321.81;;;22.04;46.94
35758;BME280;21879;50.110;18.900;2024-01-07T11:06:20;98323.66;;;22.03;46.75
35758;BME280;21879;50.110;18.900;2024-01-07T11:16:52;98328.09;;;22.03;46.65
35758;BME280;21879;50.110;18.900;2024-01-07T11:27:20;98325.94;;;22.03;46.62
35758;BME280;21879;50.110;18.900;2024-01-07T11:37:48;98329.98;;;22.04;46.39
35758;BME280;21879;50.110;18.900;2024-01-07T11:48:16;98332.59;;;22.05;46.25
35758;BME280;21879;50.110;18.900;2024-01-07T11:58:44;98329.21;;;22.05;46.03
35758;BME280;21879;50.110;18.900;2024-01-07T12:09:14;98327.25;;;22.05;45.95
35758;BME280;21879;50.110;18.900;2024-01-07T12:19:42;98327.42;;;22.05;46.28
35758;BME280;21879;50.110;18.900;2024-01-07T12:30:11;98331.98;;;22.07;46.23
35758;BME280;21879;50.110;18.900;2024-01-07T12:40:39;98335.36;;;22.06;46.11
35758;BME280;21879;50.110;18.900;2024-01-07T12:51:07;98351.08;;;22.07;45.93
35758;BME280;21879;50.110;18.900;2024-01-07T13:01:35;98361.95;;;22.05;45.99
35758;BME280;21879;50.110;18.900;2024-01-07T13:12:04;98372.98;;;22.04;45.86
35758;BME280;21879;50.110;18.900;2024-01-07T13:22:32;98380.37;;;22.03;45.64
35758;BME280;21879;50.110;18.900;2024-01-07T13:33:01;98393.54;;;22.01;45.50
35758;BME280;21879;50.110;18.900;2024-01-07T13:43:32;98398.38;;;22.00;45.46
35758;BME280;21879;50.110;18.900;2024-01-07T13:54:00;98411.23;;;21.99;45.40
35758;BME280;21879;50.110;18.900;2024-01-07T14:04:29;98417.14;;;21.97;45.37
35758;BME280;21879;50.110;18.900;2024-01-07T14:14:58;98434.20;;;21.96;45.31
35758;BME280;21879;50.110;18.900;2024-01-07T14:25:26;98446.53;;;21.94;45.00
35758;BME280;21879;50.110;18.900;2024-01-07T14:35:54;98451.68;;;21.94;45.14
35758;BME280;21879;50.110;18.900;2024-01-07T14:46:22;98460.95;;;21.96;45.42
35758;BME280;21879;50.110;18.900;2024-01-07T14:56:50;98471.02;;;21.96;45.39
35758;BME280;21879;50.110;18.900;2024-01-07T15:07:17;98474.44;;;21.96;45.42
35758;BME280;21879;50.110;18.900;2024-01-07T15:17:47;98489.02;;;21.94;45.39
35758;BME280;21879;50.110;18.900;2024-01-07T15:28:15;98492.08;;;21.93;45.25
35758;BME280;21879;50.110;18.900;2024-01-07T15:38:43;98498.08;;;21.94;45.67
35758;BME280;21879;50.110;18.900;2024-01-07T15:49:11;98504.95;;;21.97;46.40
35758;BME280;21879;50.110;18.900;2024-01-07T15:59:41;98519.38;;;21.99;46.47
35758;BME280;21879;50.110;18.900;2024-01-07T16:10:10;98532.84;;;21.99;46.25
35758;BME280;21879;50.110;18.900;2024-01-07T16:20:38;98542.41;;;21.98;46.04
35758;BME280;21879;50.110;18.900;2024-01-07T16:31:07;98552.56;;;21.97;45.81
35758;BME280;21879;50.110;18.900;2024-01-07T16:41:35;98564.00;;;21.96;45.47
35758;BME280;21879;50.110;18.900;2024-01-07T16:52:03;98568.46;;;21.95;45.85
35758;BME280;21879;50.110;18.900;2024-01-07T17:02:31;98582.45;;;21.98;46.12
35758;BME280;21879;50.110;18.900;2024-01-07T17:12:59;98595.15;;;21.99;46.00
35758;BME280;21879;50.110;18.900;2024-01-07T17:23:27;98605.59;;;21.99;45.76
35758;BME280;21879;50.110;18.900;2024-01-07T17:33:55;98613.73;;;21.99;45.58
35758;BME280;21879;50.110;18.900;2024-01-07T17:44:23;98626.35;;;21.98;45.52
35758;BME280;21879;50.110;18.900;2024-01-07T17:54:51;98636.75;;;21.96;45.34
35758;BME280;21879;50.110;18.900;2024-01-07T18:05:19;98647.84;;;21.94;45.01
35758;BME280;21879;50.110;18.900;2024-01-07T18:15:47;98667.42;;;21.92;45.71
35758;BME280;21879;50.110;18.900;2024-01-07T18:26:15;98679.50;;;21.97;48.18
35758;BME280;21879;50.110;18.900;2024-01-07T18:36:43;98683.48;;;22.05;49.94
35758;BME280;21879;50.110;18.900;2024-01-07T18:47:10;98697.63;;;22.12;50.86
35758;BME280;21879;50.110;18.900;2024-01-07T18:57:40;98715.00;;;22.18;50.81
35758;BME280;21879;50.110;18.900;2024-01-07T19:08:09;98718.98;;;22.22;49.98
35758;BME280;21879;50.110;18.900;2024-01-07T19:18:37;98731.70;;;22.30;49.48
35758;BME280;21879;50.110;18.900;2024-01-07T19:29:05;98744.19;;;22.35;48.80
35758;BME280;21879;50.110;18.900;2024-01-07T19:39:32;98750.41;;;22.37;48.31
35758;BME280;21879;50.110;18.900;2024-01-07T19:50:16;98760.30;;;22.38;47.88
35758;BME280;21879;50.110;18.900;2024-01-07T20:00:43;98767.80;;;22.37;47.38
35758;BME280;21879;50.110;18.900;2024-01-07T20:11:17;98774.05;;;22.36;46.40
35758;BME280;21879;50.110;18.900;2024-01-07T20:21:45;98783.98;;;22.36;47.07
35758;BME280;21879;50.110;18.900;2024-01-07T20:32:14;98794.95;;;22.39;47.47
35758;BME280;21879;50.110;18.900;2024-01-07T20:42:41;98806.46;;;22.42;47.26
35758;BME280;21879;50.110;18.900;2024-01-07T20:53:09;98809.92;;;22.43;47.13
35758;BME280;21879;50.110;18.900;2024-01-07T21:03:37;98815.36;;;22.41;46.86
35758;BME280;21879;50.110;18.900;2024-01-07T21:14:04;98822.92;;;22.40;46.58
35758;BME280;21879;50.110;18.900;2024-01-07T21:24:32;98824.27;;;22.37;46.25
35758;BME280;21879;50.110;18.900;2024-01-07T21:34:59;98826.71;;;22.35;45.91
35758;BME280;21879;50.110;18.900;2024-01-07T21:45:27;98824.16;;;22.33;45.75
35758;BME280;21879;50.110;18.900;2024-01-07T21:55:54;98837.37;;;22.31;45.49
35758;BME280;21879;50.110;18.900;2024-01-07T22:06:22;98844.76;;;22.29;45.24
35758;BME280;21879;50.110;18.900;2024-01-07T22:16:49;98855.10;;;22.27;44.75
35758;BME280;21879;50.110;18.900;2024-01-07T22:27:17;98859.59;;;22.26;44.54
35758;BME280;21879;50.110;18.900;2024-01-07T22:37:44;98869.52;;;22.26;44.30
35758;BME280;21879;50.110;18.900;2024-01-07T22:48:12;98876.66;;;22.25;44.12
35758;BME280;21879;50.110;18.900;2024-01-07T22:58:39;98884.51;;;22.24;43.84
35758;BME280;21879;50.110;18.900;2024-01-07T23:09:08;98892.56;;;22.22;43.38
35758;BME280;21879;50.110;18.900;2024-01-07T23:30:18;98914.10;;;22.20;42.79
35758;BME280;21879;50.110;18.900;2024-01-07T23:40:45;98921.40;;;22.20;42.53
35758;BME280;21879;50.110;18.900;2024-01-07T23:51:13;98933.84;;;22.19;42.42
